sensor_id;sensor_type;location;lat;lon;timestamp;P1;durP1;ratioP1;P2;durP2;ratioP2
7501;SDS011;3792;47.740;7.606;2023-03-01T00:00:54;19.90;;;13.10;;
7501;SDS011;3792;47.740;7.606;2023-03-01T00:03:26;16.57;;;12.67;;
7501;SDS011;3792;47.740;7.606;2023-03-01T00:05:53;16.97;;;12.47;;
7501;SDS011;3792;47.740;7.606;2023-03-01T00:08:22;17.70;;;12.70;;
7501;SDS011;3792;47.740;7.606;2023-03-01T00:10:49;17.50;;;12.97;;
7501;SDS011;3792;47.740;7.606;2023-03-01T00:13:16;17.13;;;12.47;;
7501;SDS011;3792;47.740;7.606;2023-03-01T00:15:43;21.23;;;13.07;;
7501;SDS011;3792;47.740;7.606;2023-03-01T00:18:10;18.20;;;12.67;;
7501;SDS011;3792;47.740;7.606;2023-03-01T00:20:37;19.10;;;13.37;;
7501;SDS011;3792;47.740;7.606;2023-03-01T00:23:04;19.50;;;13.60;;
7501;SDS011;3792;47.740;7.606;2023-03-01T00:25:32;17.67;;;12.17;;
7501;SDS011;3792;47.740;7.606;2023-03-01T00:27:59;17.00;;;11.67;;
7501;SDS011;3792;47.740;7.606;2023-03-01T00:30:26;17.57;;;12.80;;
7501;SDS011;3792;47.740;7.606;2023-03-01T00:32:53;17.37;;;12.57;;
7501;SDS011;3792;47.740;7.606;2023-03-01T00:35:20;17.60;;;12.00;;
7501;SDS011;3792;47.740;7.606;2023-03-01T00:37:48;17.93;;;13.47;;
7501;SDS011;3792;47.740;7.606;2023-03-01T00:40:18;17.37;;;12.67;;
7501;SDS011;3792;47.740;7.606;2023-03-01T00:42:47;16.63;;;12.07;;
7501;SDS011;3792;47.740;7.606;2023-03-01T00:45:14;16.47;;;12.23;;
7501;SDS011;3792;47.740;7.606;2023-03-01T00:47:41;15.00;;;11.43;;
7501;SDS011;3792;47.740;7.606;2023-03-01T00:50:09;16.47;;;11.53;;
7501;SDS011;3792;47.740;7.606;2023-03-01T00:52:37;16.93;;;11.93;;
7501;SDS011;3792;47.740;7.606;2023-03-01T00:55:04;17.07;;;12.80;;
7501;SDS011;3792;47.740;7.606;2023-03-01T00:57:32;20.23;;;12.43;;
7501;SDS011;3792;47.740;7.606;2023-03-01T01:00:01;15.63;;;11.53;;
7501;SDS011;3792;47.740;7.606;2023-03-01T01:02:29;17.30;;;12.37;;
7501;SDS011;3792;47.740;7.606;2023-03-01T01:04:58;18.10;;;12.37;;
7501;SDS011;3792;47.740;7.606;2023-03-01T01:07:25;16.60;;;11.67;;
7501;SDS011;3792;47.740;7.606;2023-03-01T01:09:52;16.23;;;11.73;;
7501;SDS011;3792;47.740;7.606;2023-03-01T01:12:20;16.43;;;11.53;;
7501;SDS011;3792;47.740;7.606;2023-03-01T01:14:47;17.97;;;12.37;;
7501;SDS011;3792;47.740;7.606;2023-03-01T01:17:16;18.23;;;12.07;;
7501;SDS011;3792;47.740;7.606;2023-03-01T01:19:43;17.30;;;13.20;;
7501;SDS011;3792;47.740;7.606;2023-03-01T01:22:10;17.83;;;12.77;;
7501;SDS011;3792;47.740;7.606;2023-03-01T01:24:37;15.60;;;11.60;;
7501;SDS011;3792;47.740;7.606;2023-03-01T01:27:04;19.03;;;12.17;;
7501;SDS011;3792;47.740;7.606;2023-03-01T01:29:32;16.43;;;11.80;;
7501;SDS011;3792;47.740;7.606;2023-03-01T01:31:59;15.50;;;11.63;;
7501;SDS011;3792;47.740;7.606;2023-03-01T01:34:27;17.23;;;12.37;;
7501;SDS011;3792;47.740;7.606;2023-03-01T01:36:54;19.13;;;12.90;;
7501;SDS011;3792;47.740;7.606;2023-03-01T01:39:22;17.03;;;13.10;;
7501;SDS011;3792;47.740;7.606;2023-03-01T01:41:49;20.70;;;13.33;;
7501;SDS011;3792;47.740;7.606;2023-03-01T01:44:18;20.20;;;13.70;;
7501;SDS011;3792;47.740;7.606;2023-03-01T01:46:49;17.17;;;12.87;;
7501;SDS011;3792;47.740;7.606;2023-03-01T01:49:25;16.87;;;12.00;;
7501;SDS011;3792;47.740;7.606;2023-03-01T01:51:59;17.30;;;11.83;;
7501;SDS011;3792;47.740;7.606;2023-03-01T01:54:32;17.47;;;12.97;;
7501;SDS011;3792;47.740;7.606;2023-03-01T01:57:07;17.70;;;11.97;;
7501;SDS011;3792;47.740;7.606;2023-03-01T01:59:38;19.70;;;12.57;;
7501;SDS011;3792;47.740;7.606;2023-03-01T02:02:07;17.73;;;12.53;;
7501;SDS011;3792;47.740;7.606;2023-03-01T02:04:36;18.73;;;12.50;;
7501;SDS011;3792;47.740;7.606;2023-03-01T02:07:05;19.67;;;13.43;;
7501;SDS011;3792;47.740;7.606;2023-03-01T02:09:36;20.33;;;13.07;;
7501;SDS011;3792;47.740;7.606;2023-03-01T02:12:04;19.50;;;13.70;;
7501;SDS011;3792;47.740;7.606;2023-03-01T02:14:32;18.97;;;12.53;;
7501;SDS011;3792;47.740;7.606;2023-03-01T02:16:59;21.83;;;13.47;;
7501;SDS011;3792;47.740;7.606;2023-03-01T02:19:29;19.20;;;13.47;;
7501;SDS011;3792;47.740;7.606;2023-03-01T02:22:07;19.23;;;13.00;;
7501;SDS011;3792;47.740;7.606;2023-03-01T02:24:44;19.07;;;12.63;;
7501;SDS011;3792;47.740;7.606;2023-03-01T02:27:20;19.87;;;12.77;;
7501;SDS011;3792;47.740;7.606;2023-03-01T02:29:51;17.17;;;12.43;;
7501;SDS011;3792;47.740;7.606;2023-03-01T02:32:18;18.13;;;12.57;;
7501;SDS011;3792;47.740;7.606;2023-03-01T02:34:50;18.27;;;12.73;;
7501;SDS011;3792;47.740;7.606;2023-03-01T02:37:18;16.83;;;12.10;;
7501;SDS011;3792;47.740;7.606;2023-03-01T02:39:50;18.63;;;12.80;;
7501;SDS011;3792;47.740;7.606;2023-03-01T02:42:23;17.20;;;12.57;;
7501;SDS011;3792;47.740;7.606;2023-03-01T02:44:55;19.23;;;13.37;;
7501;SDS011;3792;47.740;7.606;2023-03-01T02:47:22;16.93;;;12.23;;
7501;SDS011;3792;47.740;7.606;2023-03-01T02:49:50;18.70;;;12.87;;
7501;SDS011;3792;47.740;7.606;2023-03-01T02:52:21;17.93;;;12.97;;
7501;SDS011;3792;47.740;7.606;2023-03-01T02:54:56;19.37;;;12.60;;
7501;SDS011;3792;47.740;7.606;2023-03-01T02:57:27;15.60;;;12.10;;
7501;SDS011;3792;47.740;7.606;2023-03-01T02:59:58;18.00;;;12.87;;
7501;SDS011;3792;47.740;7.606;2023-03-01T03:02:32;19.97;;;13.43;;
7501;SDS011;3792;47.740;7.606;2023-03-01T03:05:06;18.03;;;13.33;;
7501;SDS011;3792;47.740;7.606;2023-03-01T03:07:36;20.73;;;14.03;;
7501;SDS011;3792;47.740;7.606;2023-03-01T03:10:05;23.50;;;13.63;;
7501;SDS011;3792;47.740;7.606;2023-03-01T03:12:36;21.60;;;14.40;;
7501;SDS011;3792;47.740;7.606;2023-03-01T03:15:05;19.60;;;13.90;;
7501;SDS011;3792;47.740;7.606;2023-03-01T03:17:35;20.20;;;13.37;;
7501;SDS011;3792;47.740;7.606;2023-03-01T03:20:02;21.20;;;12.90;;
7501;SDS011;3792;47.740;7.606;2023-03-01T03:22:30;18.73;;;13.23;;
7501;SDS011;3792;47.740;7.606;2023-03-01T03:24:59;18.20;;;13.00;;
7501;SDS011;3792;47.740;7.606;2023-03-01T03:27:27;21.03;;;13.37;;
7501;SDS011;3792;47.740;7.606;2023-03-01T03:29:54;19.67;;;13.97;;
7501;SDS011;3792;47.740;7.606;2023-03-01T03:32:22;22.57;;;13.73;;
7501;SDS011;3792;47.740;7.606;2023-03-01T03:34:49;19.73;;;12.50;;
7501;SDS011;3792;47.740;7.606;2023-03-01T03:37:16;22.23;;;14.20;;
7501;SDS011;3792;47.740;7.606;2023-03-01T03:39:58;18.27;;;13.23;;
7501;SDS011;3792;47.740;7.606;2023-03-01T03:42:25;19.17;;;13.33;;
7501;SDS011;3792;47.740;7.606;2023-03-01T03:44:52;19.73;;;15.17;;
7501;SDS011;3792;47.740;7.606;2023-03-01T03:47:19;23.30;;;15.30;;
7501;SDS011;3792;47.740;7.606;2023-03-01T03:49:48;19.13;;;13.30;;
7501;SDS011;3792;47.740;7.606;2023-03-01T03:52:15;19.60;;;14.17;;
7501;SDS011;3792;47.740;7.606;2023-03-01T03:54:42;20.67;;;14.20;;
7501;SDS011;3792;47.740;7.606;2023-03-01T03:57:09;19.37;;;13.30;;
7501;SDS011;3792;47.740;7.606;2023-03-01T03:59:36;19.43;;;14.17;;
7501;SDS011;3792;47.740;7.606;2023-03-01T04:02:03;20.63;;;13.90;;
7501;SDS011;3792;47.740;7.606;2023-03-01T04:04:30;21.10;;;14.47;;
7501;SDS011;3792;47.740;7.606;2023-03-01T04:06:59;18.47;;;13.60;;
7501;SDS011;3792;47.740;7.606;2023-03-01T04:09:26;17.90;;;13.07;;
7501;SDS011;3792;47.740;7.606;2023-03-01T04:11:55;19.37;;;13.73;;
7501;SDS011;3792;47.740;7.606;2023-03-01T04:14:22;20.60;;;13.97;;
7501;SDS011;3792;47.740;7.606;2023-03-01T04:16:49;21.97;;;16.10;;
7501;SDS011;3792;47.740;7.606;2023-03-01T04:19:16;18.70;;;14.17;;
7501;SDS011;3792;47.740;7.606;2023-03-01T04:21:43;19.23;;;14.00;;
7501;SDS011;3792;47.740;7.606;2023-03-01T04:24:11;21.77;;;16.10;;
7501;SDS011;3792;47.740;7.606;2023-03-01T04:26:38;18.43;;;13.33;;
7501;SDS011;3792;47.740;7.606;2023-03-01T04:29:05;20.60;;;14.13;;
7501;SDS011;3792;47.740;7.606;2023-03-01T04:31:32;19.93;;;13.43;;
7501;SDS011;3792;47.740;7.606;2023-03-01T04:33:59;22.40;;;14.60;;
7501;SDS011;3792;47.740;7.606;2023-03-01T04:36:27;20.50;;;13.63;;
7501;SDS011;3792;47.740;7.606;2023-03-01T04:38:55;20.97;;;14.43;;
7501;SDS011;3792;47.740;7.606;2023-03-01T04:41:24;23.10;;;14.63;;
7501;SDS011;3792;47.740;7.606;2023-03-01T04:43:51;20.80;;;14.13;;
7501;SDS011;3792;47.740;7.606;2023-03-01T04:46:19;23.27;;;14.60;;
7501;SDS011;3792;47.740;7.606;2023-03-01T04:48:47;22.90;;;13.87;;
7501;SDS011;3792;47.740;7.606;2023-03-01T04:51:14;22.87;;;14.93;;
7501;SDS011;3792;47.740;7.606;2023-03-01T04:53:43;20.40;;;14.13;;
7501;SDS011;3792;47.740;7.606;2023-03-01T04:56:11;19.03;;;13.07;;
7501;SDS011;3792;47.740;7.606;2023-03-01T04:58:40;20.43;;;13.97;;
7501;SDS011;3792;47.740;7.606;2023-03-01T05:01:08;19.67;;;13.90;;
7501;SDS011;3792;47.740;7.606;2023-03-01T05:03:40;19.07;;;13.53;;
7501;SDS011;3792;47.740;7.606;2023-03-01T05:06:08;23.10;;;13.90;;
7501;SDS011;3792;47.740;7.606;2023-03-01T05:08:36;24.13;;;14.77;;
7501;SDS011;3792;47.740;7.606;2023-03-01T05:11:03;25.53;;;14.67;;
7501;SDS011;3792;47.740;7.606;2023-03-01T05:13:34;21.10;;;14.50;;
7501;SDS011;3792;47.740;7.606;2023-03-01T05:16:02;22.90;;;13.77;;
7501;SDS011;3792;47.740;7.606;2023-03-01T05:18:32;20.13;;;14.13;;
7501;SDS011;3792;47.740;7.606;2023-03-01T05:21:02;22.93;;;15.57;;
7501;SDS011;3792;47.740;7.606;2023-03-01T05:23:30;20.83;;;13.70;;
7501;SDS011;3792;47.740;7.606;2023-03-01T05:25:57;22.77;;;15.03;;
7501;SDS011;3792;47.740;7.606;2023-03-01T05:28:25;22.33;;;15.37;;
7501;SDS011;3792;47.740;7.606;2023-03-01T05:30:53;21.93;;;14.13;;
7501;SDS011;3792;47.740;7.606;2023-03-01T05:33:22;24.67;;;16.17;;
7501;SDS011;3792;47.740;7.606;2023-03-01T05:35:49;25.53;;;17.33;;
7501;SDS011;3792;47.740;7.606;2023-03-01T05:38:18;24.50;;;16.10;;
7501;SDS011;3792;47.740;7.606;2023-03-01T05:40:47;25.17;;;16.03;;
7501;SDS011;3792;47.740;7.606;2023-03-01T05:43:15;26.83;;;16.90;;
7501;SDS011;3792;47.740;7.606;2023-03-01T05:45:43;26.57;;;16.23;;
7501;SDS011;3792;47.740;7.606;2023-03-01T05:48:11;25.90;;;16.10;;
7501;SDS011;3792;47.740;7.606;2023-03-01T05:50:40;25.23;;;15.40;;
7501;SDS011;3792;47.740;7.606;2023-03-01T05:53:09;25.50;;;15.17;;
7501;SDS011;3792;47.740;7.606;2023-03-01T05:55:38;23.63;;;15.73;;
7501;SDS011;3792;47.740;7.606;2023-03-01T05:58:07;26.93;;;17.20;;
7501;SDS011;3792;47.740;7.606;2023-03-01T06:00:36;27.53;;;18.53;;
7501;SDS011;3792;47.740;7.606;2023-03-01T06:03:03;37.60;;;22.10;;
7501;SDS011;3792;47.740;7.606;2023-03-01T06:05:30;31.97;;;19.93;;
7501;SDS011;3792;47.740;7.606;2023-03-01T06:07:59;33.90;;;20.90;;
7501;SDS011;3792;47.740;7.606;2023-03-01T06:10:27;29.23;;;19.20;;
7501;SDS011;3792;47.740;7.606;2023-03-01T06:12:55;30.33;;;18.37;;
7501;SDS011;3792;47.740;7.606;2023-03-01T06:15:22;28.90;;;18.23;;
7501;SDS011;3792;47.740;7.606;2023-03-01T06:17:50;27.17;;;17.77;;
7501;SDS011;3792;47.740;7.606;2023-03-01T06:20:18;29.70;;;18.77;;
7501;SDS011;3792;47.740;7.606;2023-03-01T06:22:46;30.23;;;19.80;;
7501;SDS011;3792;47.740;7.606;2023-03-01T06:25:16;30.10;;;19.77;;
7501;SDS011;3792;47.740;7.606;2023-03-01T06:27:45;29.37;;;20.67;;
7501;SDS011;3792;47.740;7.606;2023-03-01T06:30:15;36.00;;;22.10;;
7501;SDS011;3792;47.740;7.606;2023-03-01T06:32:43;37.93;;;20.20;;
7501;SDS011;3792;47.740;7.606;2023-03-01T06:35:11;53.83;;;31.10;;
7501;SDS011;3792;47.740;7.606;2023-03-01T06:37:42;66.37;;;34.77;;
7501;SDS011;3792;47.740;7.606;2023-03-01T06:40:09;58.17;;;33.83;;
7501;SDS011;3792;47.740;7.606;2023-03-01T06:42:42;59.40;;;34.67;;
7501;SDS011;3792;47.740;7.606;2023-03-01T06:45:14;49.73;;;30.80;;
7501;SDS011;3792;47.740;7.606;2023-03-01T06:47:41;42.77;;;28.30;;
7501;SDS011;3792;47.740;7.606;2023-03-01T06:50:09;38.23;;;24.07;;
7501;SDS011;3792;47.740;7.606;2023-03-01T06:52:37;28.70;;;19.67;;
7501;SDS011;3792;47.740;7.606;2023-03-01T06:55:04;30.90;;;18.80;;
7501;SDS011;3792;47.740;7.606;2023-03-01T06:57:32;28.77;;;18.67;;
7501;SDS011;3792;47.740;7.606;2023-03-01T07:00:00;26.60;;;18.10;;
7501;SDS011;3792;47.740;7.606;2023-03-01T07:02:28;26.63;;;18.23;;
7501;SDS011;3792;47.740;7.606;2023-03-01T07:04:55;27.90;;;19.20;;
7501;SDS011;3792;47.740;7.606;2023-03-01T07:07:23;26.93;;;18.33;;
7501;SDS011;3792;47.740;7.606;2023-03-01T07:09:50;30.67;;;19.67;;
7501;SDS011;3792;47.740;7.606;2023-03-01T07:12:18;28.83;;;19.07;;
7501;SDS011;3792;47.740;7.606;2023-03-01T07:14:45;32.73;;;20.13;;
7501;SDS011;3792;47.740;7.606;2023-03-01T07:17:13;31.57;;;20.57;;
7501;SDS011;3792;47.740;7.606;2023-03-01T07:19:40;29.57;;;20.17;;
7501;SDS011;3792;47.740;7.606;2023-03-01T07:22:07;33.63;;;21.47;;
7501;SDS011;3792;47.740;7.606;2023-03-01T07:24:34;42.63;;;25.80;;
7501;SDS011;3792;47.740;7.606;2023-03-01T07:27:01;39.53;;;25.87;;
7501;SDS011;3792;47.740;7.606;2023-03-01T07:29:29;44.67;;;28.20;;
7501;SDS011;3792;47.740;7.606;2023-03-01T07:31:56;44.43;;;27.80;;
7501;SDS011;3792;47.740;7.606;2023-03-01T07:34:24;44.07;;;24.17;;
7501;SDS011;3792;47.740;7.606;2023-03-01T07:36:51;40.30;;;25.00;;
7501;SDS011;3792;47.740;7.606;2023-03-01T07:39:18;37.40;;;23.73;;
7501;SDS011;3792;47.740;7.606;2023-03-01T07:41:48;44.03;;;25.57;;
7501;SDS011;3792;47.740;7.606;2023-03-01T07:44:14;43.50;;;26.70;;
7501;SDS011;3792;47.740;7.606;2023-03-01T07:46:42;43.93;;;26.10;;
7501;SDS011;3792;47.740;7.606;2023-03-01T07:49:09;41.00;;;25.20;;
7501;SDS011;3792;47.740;7.606;2023-03-01T07:51:38;38.57;;;26.00;;
7501;SDS011;3792;47.740;7.606;2023-03-01T07:54:05;39.60;;;25.70;;
7501;SDS011;3792;47.740;7.606;2023-03-01T07:56:32;39.97;;;25.93;;
7501;SDS011;3792;47.740;7.606;2023-03-01T07:58:59;40.77;;;25.20;;
7501;SDS011;3792;47.740;7.606;2023-03-01T08:01:26;40.50;;;23.27;;
7501;SDS011;3792;47.740;7.606;2023-03-01T08:03:53;35.73;;;23.07;;
7501;SDS011;3792;47.740;7.606;2023-03-01T08:06:20;38.27;;;23.17;;
7501;SDS011;3792;47.740;7.606;2023-03-01T08:08:49;43.60;;;29.20;;
7501;SDS011;3792;47.740;7.606;2023-03-01T08:11:16;49.33;;;30.90;;
7501;SDS011;3792;47.740;7.606;2023-03-01T08:13:43;38.60;;;26.07;;
7501;SDS011;3792;47.740;7.606;2023-03-01T08:16:11;44.23;;;26.87;;
7501;SDS011;3792;47.740;7.606;2023-03-01T08:18:39;40.07;;;24.17;;
7501;SDS011;3792;47.740;7.606;2023-03-01T08:21:08;31.87;;;20.33;;
7501;SDS011;3792;47.740;7.606;2023-03-01T08:23:36;31.90;;;22.10;;
7501;SDS011;3792;47.740;7.606;2023-03-01T08:26:05;27.77;;;19.03;;
7501;SDS011;3792;47.740;7.606;2023-03-01T08:28:33;29.77;;;20.60;;
7501;SDS011;3792;47.740;7.606;2023-03-01T08:31:00;30.27;;;20.60;;
7501;SDS011;3792;47.740;7.606;2023-03-01T08:33:27;31.03;;;20.73;;
7501;SDS011;3792;47.740;7.606;2023-03-01T08:36:02;33.50;;;20.97;;
7501;SDS011;3792;47.740;7.606;2023-03-01T08:38:32;30.77;;;19.60;;
7501;SDS011;3792;47.740;7.606;2023-03-01T08:40:59;30.80;;;19.77;;
7501;SDS011;3792;47.740;7.606;2023-03-01T08:43:28;28.23;;;19.73;;
7501;SDS011;3792;47.740;7.606;2023-03-01T08:45:56;29.90;;;19.00;;
7501;SDS011;3792;47.740;7.606;2023-03-01T08:48:23;33.37;;;20.37;;
7501;SDS011;3792;47.740;7.606;2023-03-01T08:50:50;29.03;;;20.13;;
7501;SDS011;3792;47.740;7.606;2023-03-01T08:53:17;33.33;;;20.90;;
7501;SDS011;3792;47.740;7.606;2023-03-01T08:55:44;31.53;;;20.17;;
7501;SDS011;3792;47.740;7.606;2023-03-01T08:58:11;26.53;;;18.77;;
7501;SDS011;3792;47.740;7.606;2023-03-01T09:00:40;28.20;;;19.63;;
7501;SDS011;3792;47.740;7.606;2023-03-01T09:03:07;31.20;;;19.47;;
7501;SDS011;3792;47.740;7.606;2023-03-01T09:05:34;28.30;;;19.30;;
7501;SDS011;3792;47.740;7.606;2023-03-01T09:08:02;29.67;;;18.40;;
7501;SDS011;3792;47.740;7.606;2023-03-01T09:10:29;29.37;;;19.17;;
7501;SDS011;3792;47.740;7.606;2023-03-01T09:12:56;29.27;;;19.03;;
7501;SDS011;3792;47.740;7.606;2023-03-01T09:15:23;29.07;;;19.13;;
7501;SDS011;3792;47.740;7.606;2023-03-01T09:17:51;30.77;;;19.77;;
7501;SDS011;3792;47.740;7.606;2023-03-01T09:20:18;29.60;;;18.83;;
7501;SDS011;3792;47.740;7.606;2023-03-01T09:22:45;29.57;;;18.47;;
7501;SDS011;3792;47.740;7.606;2023-03-01T09:25:12;27.67;;;18.80;;
7501;SDS011;3792;47.740;7.606;2023-03-01T09:27:39;29.13;;;18.67;;
7501;SDS011;3792;47.740;7.606;2023-03-01T09:30:09;31.33;;;19.67;;
7501;SDS011;3792;47.740;7.606;2023-03-01T09:32:36;32.07;;;19.93;;
7501;SDS011;3792;47.740;7.606;2023-03-01T09:35:09;29.97;;;18.47;;
7501;SDS011;3792;47.740;7.606;2023-03-01T09:37:36;36.37;;;24.10;;
7501;SDS011;3792;47.740;7.606;2023-03-01T09:40:05;30.80;;;20.40;;
7501;SDS011;3792;47.740;7.606;2023-03-01T09:42:34;39.47;;;23.73;;
7501;SDS011;3792;47.740;7.606;2023-03-01T09:45:03;35.60;;;21.43;;
7501;SDS011;3792;47.740;7.606;2023-03-01T09:47:32;33.07;;;21.00;;
7501;SDS011;3792;47.740;7.606;2023-03-01T09:50:02;35.37;;;22.63;;
7501;SDS011;3792;47.740;7.606;2023-03-01T09:52:36;35.93;;;23.43;;
7501;SDS011;3792;47.740;7.606;2023-03-01T09:55:10;31.87;;;20.03;;
7501;SDS011;3792;47.740;7.606;2023-03-01T09:57:41;36.20;;;21.10;;
7501;SDS011;3792;47.740;7.606;2023-03-01T10:00:19;37.40;;;22.33;;
7501;SDS011;3792;47.740;7.606;2023-03-01T10:02:57;33.47;;;20.83;;
7501;SDS011;3792;47.740;7.606;2023-03-01T10:05:34;30.43;;;20.10;;
7501;SDS011;3792;47.740;7.606;2023-03-01T10:10:58;32.90;;;21.23;;
7501;SDS011;3792;47.740;7.606;2023-03-01T10:13:27;30.73;;;20.07;;
7501;SDS011;3792;47.740;7.606;2023-03-01T10:16:03;40.03;;;21.00;;
7501;SDS011;3792;47.740;7.606;2023-03-01T10:18:36;33.87;;;21.07;;
7501;SDS011;3792;47.740;7.606;2023-03-01T10:21:09;30.90;;;20.33;;
7501;SDS011;3792;47.740;7.606;2023-03-01T10:23:43;28.63;;;19.17;;
7501;SDS011;3792;47.740;7.606;2023-03-01T10:26:17;33.00;;;20.20;;
7501;SDS011;3792;47.740;7.606;2023-03-01T10:28:54;31.97;;;19.43;;
7501;SDS011;3792;47.740;7.606;2023-03-01T10:31:31;34.00;;;20.40;;
7501;SDS011;3792;47.740;7.606;2023-03-01T10:34:07;28.53;;;19.13;;
7501;SDS011;3792;47.740;7.606;2023-03-01T10:36:36;29.93;;;19.23;;
7501;SDS011;3792;47.740;7.606;2023-03-01T10:39:12;30.17;;;19.83;;
7501;SDS011;3792;47.740;7.606;2023-03-01T10:41:52;28.60;;;19.87;;
7501;SDS011;3792;47.740;7.606;2023-03-01T10:44:37;28.97;;;19.60;;
7501;SDS011;3792;47.740;7.606;2023-03-01T10:47:17;28.00;;;18.33;;
7501;SDS011;3792;47.740;7.606;2023-03-01T10:49:53;27.90;;;18.07;;
7501;SDS011;3792;47.740;7.606;2023-03-01T10:52:26;26.70;;;17.50;;
7501;SDS011;3792;47.740;7.606;2023-03-01T10:54:57;27.50;;;19.37;;
7501;SDS011;3792;47.740;7.606;2023-03-01T10:57:31;29.10;;;18.07;;
7501;SDS011;3792;47.740;7.606;2023-03-01T11:00:15;32.20;;;19.93;;
7501;SDS011;3792;47.740;7.606;2023-03-01T11:02:46;31.43;;;19.07;;
7501;SDS011;3792;47.740;7.606;2023-03-01T11:05:21;29.37;;;18.10;;
7501;SDS011;3792;47.740;7.606;2023-03-01T11:07:52;26.37;;;17.20;;
7501;SDS011;3792;47.740;7.606;2023-03-01T11:10:23;28.93;;;18.10;;
7501;SDS011;3792;47.740;7.606;2023-03-01T11:12:52;28.43;;;18.70;;
7501;SDS011;3792;47.740;7.606;2023-03-01T11:15:21;27.77;;;19.37;;
7501;SDS011;3792;47.740;7.606;2023-03-01T11:17:52;30.30;;;19.40;;
7501;SDS011;3792;47.740;7.606;2023-03-01T11:20:24;25.07;;;18.80;;
7501;SDS011;3792;47.740;7.606;2023-03-01T11:22:53;30.73;;;20.03;;
7501;SDS011;3792;47.740;7.606;2023-03-01T11:25:25;31.73;;;19.30;;
7501;SDS011;3792;47.740;7.606;2023-03-01T11:27:55;27.43;;;19.73;;
7501;SDS011;3792;47.740;7.606;2023-03-01T11:30:24;30.13;;;21.10;;
7501;SDS011;3792;47.740;7.606;2023-03-01T11:33:01;27.10;;;17.70;;
7501;SDS011;3792;47.740;7.606;2023-03-01T11:35:37;25.77;;;18.27;;
7501;SDS011;3792;47.740;7.606;2023-03-01T11:38:15;26.30;;;18.30;;
7501;SDS011;3792;47.740;7.606;2023-03-01T11:40:49;23.80;;;17.17;;
7501;SDS011;3792;47.740;7.606;2023-03-01T11:43:20;24.57;;;18.07;;
7501;SDS011;3792;47.740;7.606;2023-03-01T11:45:58;28.07;;;18.03;;
7501;SDS011;3792;47.740;7.606;2023-03-01T11:48:44;29.70;;;19.67;;
7501;SDS011;3792;47.740;7.606;2023-03-01T11:51:21;39.17;;;22.10;;
7501;SDS011;3792;47.740;7.606;2023-03-01T11:54:01;36.23;;;21.53;;
7501;SDS011;3792;47.740;7.606;2023-03-01T11:56:38;28.93;;;19.30;;
7501;SDS011;3792;47.740;7.606;2023-03-01T12:02:17;22.60;;;17.03;;
7501;SDS011;3792;47.740;7.606;2023-03-01T12:05:12;26.07;;;17.67;;
7501;SDS011;3792;47.740;7.606;2023-03-01T12:08:02;24.97;;;17.17;;
7501;SDS011;3792;47.740;7.606;2023-03-01T12:10:38;26.57;;;18.10;;
7501;SDS011;3792;47.740;7.606;2023-03-01T12:13:23;28.67;;;18.13;;
7501;SDS011;3792;47.740;7.606;2023-03-01T12:19:18;24.50;;;16.73;;
7501;SDS011;3792;47.740;7.606;2023-03-01T12:22:17;23.50;;;17.20;;
7501;SDS011;3792;47.740;7.606;2023-03-01T12:25:13;28.90;;;18.27;;
7501;SDS011;3792;47.740;7.606;2023-03-01T12:27:59;23.50;;;18.13;;
7501;SDS011;3792;47.740;7.606;2023-03-01T12:30:53;29.53;;;19.53;;
7501;SDS011;3792;47.740;7.606;2023-03-01T12:33:34;28.17;;;19.50;;
7501;SDS011;3792;47.740;7.606;2023-03-01T12:36:17;24.43;;;17.87;;
7501;SDS011;3792;47.740;7.606;2023-03-01T12:38:59;24.93;;;17.47;;
7501;SDS011;3792;47.740;7.606;2023-03-01T12:41:41;25.30;;;18.07;;
7501;SDS011;3792;47.740;7.606;2023-03-01T12:44:31;23.43;;;16.93;;
7501;SDS011;3792;47.740;7.606;2023-03-01T12:47:11;25.70;;;17.00;;
7501;SDS011;3792;47.740;7.606;2023-03-01T12:49:49;24.73;;;16.40;;
7501;SDS011;3792;47.740;7.606;2023-03-01T12:52:22;28.77;;;17.53;;
7501;SDS011;3792;47.740;7.606;2023-03-01T12:54:55;23.83;;;16.73;;
7501;SDS011;3792;47.740;7.606;2023-03-01T12:57:28;24.27;;;17.60;;
7501;SDS011;3792;47.740;7.606;2023-03-01T13:00:05;21.93;;;17.40;;
7501;SDS011;3792;47.740;7.606;2023-03-01T13:02:47;26.57;;;17.50;;
7501;SDS011;3792;47.740;7.606;2023-03-01T13:05:23;29.43;;;19.23;;
7501;SDS011;3792;47.740;7.606;2023-03-01T13:07:58;24.83;;;17.73;;
7501;SDS011;3792;47.740;7.606;2023-03-01T13:10:33;25.13;;;17.87;;
7501;SDS011;3792;47.740;7.606;2023-03-01T13:13:18;30.10;;;19.90;;
7501;SDS011;3792;47.740;7.606;2023-03-01T13:15:47;26.93;;;17.83;;
7501;SDS011;3792;47.740;7.606;2023-03-01T13:18:31;25.67;;;17.67;;
7501;SDS011;3792;47.740;7.606;2023-03-01T13:20:59;26.20;;;17.83;;
7501;SDS011;3792;47.740;7.606;2023-03-01T13:23:30;26.13;;;18.33;;
7501;SDS011;3792;47.740;7.606;2023-03-01T13:26:01;24.90;;;17.33;;
7501;SDS011;3792;47.740;7.606;2023-03-01T13:28:53;25.93;;;18.17;;
7501;SDS011;3792;47.740;7.606;2023-03-01T13:34:46;31.37;;;19.23;;
7501;SDS011;3792;47.740;7.606;2023-03-01T13:37:32;25.00;;;16.97;;
7501;SDS011;3792;47.740;7.606;2023-03-01T13:45:54;26.87;;;18.10;;
7501;SDS011;3792;47.740;7.606;2023-03-01T13:48:23;23.23;;;17.17;;
7501;SDS011;3792;47.740;7.606;2023-03-01T13:50:55;27.07;;;18.90;;
7501;SDS011;3792;47.740;7.606;2023-03-01T13:53:26;27.20;;;18.10;;
7501;SDS011;3792;47.740;7.606;2023-03-01T13:55:58;25.97;;;17.97;;
7501;SDS011;3792;47.740;7.606;2023-03-01T13:58:29;26.73;;;17.37;;
7501;SDS011;3792;47.740;7.606;2023-03-01T14:00:58;25.73;;;18.40;;
7501;SDS011;3792;47.740;7.606;2023-03-01T14:03:26;26.77;;;18.20;;
7501;SDS011;3792;47.740;7.606;2023-03-01T14:06:01;27.90;;;19.07;;
7501;SDS011;3792;47.740;7.606;2023-03-01T14:08:32;25.37;;;17.40;;
7501;SDS011;3792;47.740;7.606;2023-03-01T14:14:08;28.73;;;18.43;;
7501;SDS011;3792;47.740;7.606;2023-03-01T14:16:49;26.77;;;18.90;;
7501;SDS011;3792;47.740;7.606;2023-03-01T14:19:25;26.13;;;17.73;;
7501;SDS011;3792;47.740;7.606;2023-03-01T14:22:01;25.93;;;17.93;;
7501;SDS011;3792;47.740;7.606;2023-03-01T14:24:37;26.30;;;18.43;;
7501;SDS011;3792;47.740;7.606;2023-03-01T14:27:09;27.07;;;18.43;;
7501;SDS011;3792;47.740;7.606;2023-03-01T14:29:38;25.27;;;18.40;;
7501;SDS011;3792;47.740;7.606;2023-03-01T14:32:09;27.83;;;17.60;;
7501;SDS011;3792;47.740;7.606;2023-03-01T14:34:42;24.77;;;17.73;;
7501;SDS011;3792;47.740;7.606;2023-03-01T14:37:14;27.23;;;19.00;;
7501;SDS011;3792;47.740;7.606;2023-03-01T14:39:45;28.03;;;17.80;;
7501;SDS011;3792;47.740;7.606;2023-03-01T14:42:13;28.10;;;18.27;;
7501;SDS011;3792;47.740;7.606;2023-03-01T14:44:41;27.47;;;19.07;;
7501;SDS011;3792;47.740;7.606;2023-03-01T14:47:11;22.90;;;17.37;;
7501;SDS011;3792;47.740;7.606;2023-03-01T14:49:40;24.07;;;17.20;;
7501;SDS011;3792;47.740;7.606;2023-03-01T14:52:17;23.47;;;16.53;;
7501;SDS011;3792;47.740;7.606;2023-03-01T14:54:47;26.07;;;17.77;;
7501;SDS011;3792;47.740;7.606;2023-03-01T14:57:17;24.07;;;16.33;;
7501;SDS011;3792;47.740;7.606;2023-03-01T14:59:46;24.30;;;16.37;;
7501;SDS011;3792;47.740;7.606;2023-03-01T15:02:16;25.83;;;17.20;;
7501;SDS011;3792;47.740;7.606;2023-03-01T15:04:46;25.43;;;17.43;;
7501;SDS011;3792;47.740;7.606;2023-03-01T15:07:16;25.90;;;17.37;;
7501;SDS011;3792;47.740;7.606;2023-03-01T15:09:44;23.33;;;16.97;;
7501;SDS011;3792;47.740;7.606;2023-03-01T15:12:31;27.20;;;17.77;;
7501;SDS011;3792;47.740;7.606;2023-03-01T15:15:18;24.67;;;16.30;;
7501;SDS011;3792;47.740;7.606;2023-03-01T15:17:48;27.87;;;17.80;;
7501;SDS011;3792;47.740;7.606;2023-03-01T15:20:20;25.80;;;17.90;;
7501;SDS011;3792;47.740;7.606;2023-03-01T15:22:54;27.30;;;17.30;;
7501;SDS011;3792;47.740;7.606;2023-03-01T15:25:23;24.83;;;16.87;;
7501;SDS011;3792;47.740;7.606;2023-03-01T15:27:52;26.17;;;17.23;;
7501;SDS011;3792;47.740;7.606;2023-03-01T15:30:22;28.27;;;17.50;;